Time;durP1;ratioP1;P1;durP2;ratioP2;P2;SDS_P1;SDS_P2;PMS_P1;PMS_P2;Temp;Humidity;BMP_temperature;BMP_pressure;BME280_temperature;BME280_humidity;BME280_pressure;Samples;Min_cycle;Max_cycle;Signal;HPM_P1;HPM_P2
2022/10/29 05:26:45;;;;;;;13.00;10.43;;;16.70;99.90;;;;;;4591253;19;20050;-27
2022/10/29 05:28:18;;;;;;;11.70;9.60;;;16.70;99.90;;;;;;4586726;19;20361;-27
2022/10/29 05:29:49;;;;;;;16.05;10.40;;;16.70;99.90;;;;;;4591676;19;20025;-27
2022/10/29 05:31:20;;;;;;;13.98;9.15;;;16.70;99.90;;;;;;4592015;19;20066;-28
2022/10/29 05:32:51;;;;;;;13.48;10.13;;;16.70;99.90;;;;;;4591948;19;20030;-27
2022/10/29 05:34:23;;;;;;;11.48;8.80;;;16.70;99.90;;;;;;4592869;19;20105;-28
2022/10/29 05:35:55;;;;;;;12.30;8.55;;;16.70;99.90;;;;;;4591703;19;20020;-27
2022/10/29 05:37:26;;;;;;;13.00;9.05;;;16.70;99.90;;;;;;4590561;19;20033;-27
2022/10/29 05:38:57;;;;;;;13.25;9.10;;;16.70;99.90;;;;;;4591836;19;20003;-27
2022/10/29 05:40:29;;;;;;;12.43;9.20;;;16.70;99.90;;;;;;4592650;19;20473;-27
2022/10/29 05:42:00;;;;;;;14.40;8.77;;;16.70;99.90;;;;;;4590950;19;20011;-27
2022/10/29 05:43:31;;;;;;;10.95;8.52;;;16.70;99.90;;;;;;4591528;19;20023;-27
2022/10/29 05:45:02;;;;;;;11.73;8.40;;;16.70;99.90;;;;;;4590794;19;20010;-27
2022/10/29 05:46:34;;;;;;;13.05;9.43;;;16.70;99.90;;;;;;4592450;19;20519;-27
2022/10/29 05:48:05;;;;;;;12.68;9.18;;;16.70;99.90;;;;;;4590808;19;20014;-27
2022/10/29 05:49:36;;;;;;;14.02;9.60;;;16.70;99.90;;;;;;4592507;19;20089;-28
2022/10/29 05:51:07;;;;;;;12.95;8.93;;;16.70;99.90;;;;;;4592528;19;20022;-28
2022/10/29 05:52:39;;;;;;;13.68;9.50;;;16.70;99.90;;;;;;4592385;19;20479;-27
2022/10/29 05:54:10;;;;;;;15.13;9.40;;;16.70;99.90;;;;;;4591604;19;20022;-27
2022/10/29 05:55:42;;;;;;;13.48;9.38;;;16.70;99.90;;;;;;4589711;19;20078;-27
2022/10/29 05:57:14;;;;;;;12.93;10.13;;;16.70;99.90;;;;;;4591110;19;20066;-27
2022/10/29 05:58:49;;;;;;;13.80;10.05;;;16.70;99.90;;;;;;4591209;19;20022;-27
2022/10/29 06:00:20;;;;;;;14.93;10.48;;;16.70;99.90;;;;;;4591346;19;20017;-27
2022/10/29 06:01:51;;;;;;;14.13;9.77;;;16.70;99.90;;;;;;4591107;19;20015;-28
2022/10/29 06:03:22;;;;;;;12.88;9.68;;;16.70;99.90;;;;;;4591208;19;20031;-27
2022/10/29 06:04:54;;;;;;;14.23;10.05;;;16.70;99.90;;;;;;4590752;19;20022;-27
2022/10/29 06:06:27;;;;;;;14.32;9.95;;;16.70;99.90;;;;;;4589237;19;20058;-27
2022/10/29 06:07:59;;;;;;;15.85;9.95;;;16.70;99.90;;;;;;4591368;19;20472;-27
2022/10/29 06:09:30;;;;;;;15.32;11.07;;;16.70;99.90;;;;;;4589400;19;20115;-27
2022/10/29 06:11:02;;;;;;;16.23;12.13;;;16.70;99.90;;;;;;4591065;19;20009;-27
2022/10/29 06:12:34;;;;;;;15.65;11.18;;;16.70;99.90;;;;;;4590559;19;20584;-28
2022/10/29 06:14:05;;;;;;;15.77;11.32;;;16.70;99.90;;;;;;4592160;19;20515;-27
2022/10/29 06:15:36;;;;;;;16.95;11.13;;;16.70;99.90;;;;;;4591333;19;20032;-27
2022/10/29 06:17:09;;;;;;;18.35;12.00;;;16.70;99.90;;;;;;4590452;19;20018;-27
2022/10/29 06:18:40;;;;;;;15.30;10.90;;;16.70;99.90;;;;;;4591497;19;20010;-27
2022/10/29 06:20:12;;;;;;;13.77;9.88;;;16.80;99.90;;;;;;4591361;19;20082;-27
2022/10/29 06:21:43;;;;;;;15.88;9.75;;;16.80;99.90;;;;;;4590951;19;20022;-28
2022/10/29 06:23:15;;;;;;;12.55;9.73;;;16.80;99.90;;;;;;4589228;19;20010;-28
2022/10/29 06:24:48;;;;;;;13.63;9.48;;;16.80;99.90;;;;;;4591826;19;20801;-28
2022/10/29 06:26:19;;;;;;;14.18;9.02;;;16.80;99.90;;;;;;4590427;19;20018;-28
2022/10/29 06:45:27;;;;;;;14.70;10.18;;;16.90;99.90;;;;;;4590814;19;20010;-27
2022/10/29 06:46:58;;;;;;;15.18;10.45;;;16.80;99.90;;;;;;4590957;19;20014;-27
2022/10/29 06:48:29;;;;;;;15.15;12.00;;;16.80;99.90;;;;;;4586981;19;20071;-28
2022/10/29 06:50:00;;;;;;;15.63;11.15;;;16.80;99.90;;;;;;4589648;19;20362;-28
2022/10/29 06:51:31;;;;;;;12.90;10.15;;;16.80;99.90;;;;;;4591296;19;20574;-27
2022/10/29 06:53:05;;;;;;;14.95;9.70;;;16.80;99.90;;;;;;4589893;19;20045;-27
2022/10/29 06:54:37;;;;;;;12.18;9.45;;;16.80;99.90;;;;;;4591255;19;20010;-27
2022/10/29 06:56:08;;;;;;;16.25;10.48;;;16.80;99.90;;;;;;4591105;19;20006;-27
2022/10/29 06:57:41;;;;;;;13.70;9.60;;;16.80;99.90;;;;;;4590299;19;20010;-27
2022/10/29 06:59:13;;;;;;;17.45;11.07;;;16.80;99.90;;;;;;4590385;19;20010;-27
2022/10/29 07:00:44;;;;;;;15.40;10.77;;;16.80;99.90;;;;;;4589869;19;20379;-27
2022/10/29 07:02:16;;;;;;;16.48;10.13;;;16.90;99.90;;;;;;4588402;19;20007;-26
2022/10/29 07:03:48;;;;;;;15.43;9.70;;;17.00;99.90;;;;;;4588899;19;20026;-27
2022/10/29 07:05:19;;;;;;;15.68;9.90;;;17.00;99.90;;;;;;4591195;19;20475;-25
2022/10/29 07:06:51;;;;;;;17.70;9.98;;;17.00;99.90;;;;;;4589883;19;20010;-27
2022/10/29 07:08:24;;;;;;;17.27;10.80;;;17.10;99.90;;;;;;4590935;19;20007;-26
2022/10/29 07:09:57;;;;;;;15.93;9.38;;;17.10;99.90;;;;;;4588733;19;20014;-28
2022/10/29 07:11:28;;;;;;;13.95;9.18;;;17.10;99.90;;;;;;4589867;19;20018;-27
2022/10/29 07:12:59;;;;;;;14.73;9.57;;;17.10;99.90;;;;;;4592171;19;20500;-27
2022/10/29 07:14:30;;;;;;;14.93;10.65;;;17.20;99.90;;;;;;4590422;19;19998;-27
2022/10/29 07:16:03;;;;;;;16.15;9.68;;;17.20;99.90;;;;;;4589797;19;20021;-26
2022/10/29 07:17:35;;;;;;;16.33;9.77;;;17.20;99.90;;;;;;4590410;19;20406;-27
2022/10/29 07:19:06;;;;;;;14.60;9.68;;;17.20;99.90;;;;;;4589128;19;20006;-27
2022/10/29 07:20:43;;;;;;;16.88;9.50;;;17.20;99.90;;;;;;4589832;19;20469;-26
2022/10/29 07:22:14;;;;;;;20.67;11.55;;;17.20;99.90;;;;;;4588899;19;20010;-27
2022/10/29 07:23:45;;;;;;;18.33;12.70;;;17.30;99.90;;;;;;4588791;19;20015;-25
2022/10/29 07:25:16;;;;;;;19.75;11.77;;;17.40;99.90;;;;;;4589966;19;20326;-27
2022/10/29 07:26:47;;;;;;;15.98;10.30;;;17.40;99.90;;;;;;4589942;19;20021;-27
2022/10/29 07:28:22;;;;;;;13.30;9.30;;;17.40;99.90;;;;;;4589936;19;20060;-27
2022/10/29 07:29:53;;;;;;;12.20;8.52;;;17.40;99.90;;;;;;4588514;19;20089;-26
2022/10/29 07:31:24;;;;;;;12.82;8.82;;;17.40;99.90;;;;;;4589331;19;20335;-27
2022/10/29 07:32:56;;;;;;;16.52;9.60;;;17.50;99.90;;;;;;4587598;19;20042;-26
2022/10/29 07:34:26;;;;;;;11.52;9.38;;;17.50;99.90;;;;;;4588983;19;20018;-27
2022/10/29 07:35:58;;;;;;;17.27;11.30;;;17.40;99.90;;;;;;4589904;19;20023;-26
2022/10/29 07:37:30;;;;;;;13.77;9.80;;;17.40;99.90;;;;;;4590199;19;20014;-27
2022/10/29 07:39:02;;;;;;;16.80;9.73;;;17.40;99.90;;;;;;4589033;19;20050;-26
2022/10/29 07:40:34;;;;;;;10.07;7.88;;;17.40;99.90;;;;;;4587922;19;20361;-26
2022/10/29 07:42:05;;;;;;;11.73;7.90;;;17.50;99.90;;;;;;4587597;19;20458;-26
2022/10/29 07:43:37;;;;;;;10.65;7.97;;;17.60;99.90;;;;;;4588961;19;20129;-26
2022/10/29 07:45:08;;;;;;;15.27;10.05;;;17.60;99.90;;;;;;4589170;19;20018;-26
2022/10/29 07:53:33;;;;;;;13.60;9.10;;;17.60;99.90;;;;;;4595919;19;20017;-27
2022/10/29 07:55:05;;;;;;;12.75;8.82;;;17.60;99.90;;;;;;4596017;19;20018;-26
2022/10/29 07:56:36;;;;;;;14.90;9.98;;;17.60;99.90;;;;;;4594850;19;20406;-27
2022/10/29 07:58:11;;;;;;;13.52;8.90;;;17.60;99.90;;;;;;4593449;19;20534;-26
2022/10/29 07:59:46;;;;;;;12.68;9.82;;;17.60;99.90;;;;;;4593808;19;20011;-27
2022/10/29 08:01:17;;;;;;;;;;;17.60;99.90;;;;;;4594960;19;20016;-27
2022/10/29 08:02:55;;;;;;;13.15;10.20;;;17.60;99.90;;;;;;4593071;19;20251;-27
2022/10/29 08:04:26;;;;;;;16.75;10.68;;;17.60;99.90;;;;;;4594606;19;20070;-27
2022/10/29 08:05:57;;;;;;;23.30;11.45;;;17.50;99.90;;;;;;4593716;19;20010;-27
2022/10/29 08:07:29;;;;;;;14.85;10.43;;;17.50;99.90;;;;;;4594164;19;20014;-27
2022/10/29 08:09:00;;;;;;;14.93;9.85;;;17.50;99.90;;;;;;4592952;19;20022;-27
2022/10/29 08:10:32;;;;;;;14.30;9.60;;;17.50;99.90;;;;;;4590844;19;20011;-28
2022/10/29 08:12:07;;;;;;;13.70;8.98;;;17.50;99.90;;;;;;4592183;19;20527;-28
2022/10/29 08:13:39;;;;;;;15.95;14.05;;;17.60;99.90;;;;;;4591557;19;20092;-27
2022/10/29 08:15:11;;;;;;;;;;;16.30;99.90;;;;;;4592827;19;20049;-27
2022/10/29 08:16:42;;;;;;;18.05;13.43;;;15.80;99.90;;;;;;4592042;19;20337;-27
2022/10/29 08:18:15;;;;;;;16.40;13.85;;;15.60;99.90;;;;;;4591443;19;20010;-27
2022/10/29 08:19:47;;;;;;;15.32;13.70;;;15.50;99.90;;;;;;4590826;19;20013;-27
2022/10/29 08:21:19;;;;;;;15.85;13.55;;;15.50;99.90;;;;;;4591664;19;20014;-27
2022/10/29 08:22:51;;;;;;;16.17;14.48;;;15.50;99.90;;;;;;4589554;19;20034;-27
2022/10/29 08:24:23;;;;;;;17.83;15.15;;;15.50;99.90;;;;;;4591692;19;20069;-27
2022/10/29 08:25:57;;;;;;;16.40;13.60;;;15.50;99.90;;;;;;4590948;19;20025;-26
2022/10/29 08:27:28;;;;;;;18.20;14.27;;;15.60;99.90;;;;;;4591844;19;20457;-26
2022/10/29 08:29:00;;;;;;;;;;;15.50;99.90;;;;;;4592400;19;20014;-27
2022/10/29 08:30:32;;;;;;;17.23;14.60;;;15.60;99.90;;;;;;4591247;19;19921;-27
2022/10/29 08:32:04;;;;;;;18.90;16.05;;;15.60;99.90;;;;;;4591782;19;20032;-27
2022/10/29 08:33:36;;;;;;;16.30;14.52;;;15.60;99.90;;;;;;4591636;19;20011;-27
2022/10/29 08:35:08;;;;;;;18.73;14.27;;;15.60;99.90;;;;;;4591067;19;20334;-27
2022/10/29 08:36:41;;;;;;;16.63;14.00;;;15.70;99.90;;;;;;4591520;19;20011;-27
2022/10/29 08:38:12;;;;;;;18.23;15.40;;;15.70;99.90;;;;;;4591522;19;20065;-27
2022/10/29 08:39:44;;;;;;;18.23;16.33;;;15.70;99.90;;;;;;4591553;19;20044;-27
2022/10/29 15:15:15;;;;;;;15.20;11.25;;;16.90;99.90;;;;;;4588546;19;20346;-28
2022/10/29 15:16:47;;;;;;;14.93;13.30;;;16.90;99.90;;;;;;4588757;19;20021;-27
2022/10/29 15:18:19;;;;;;;17.75;14.98;;;16.90;99.90;;;;;;4589674;19;20484;-27
2022/10/29 15:19:56;;;;;;;17.77;15.60;;;16.90;99.90;;;;;;4588954;19;20025;-27
2022/10/29 15:21:30;;;;;;;21.38;16.85;;;17.00;99.90;;;;;;4589365;19;20344;-28
2022/10/29 15:23:02;;;;;;;23.23;17.33;;;17.00;99.90;;;;;;4589016;19;20022;-27
2022/10/29 15:24:33;;;;;;;29.23;22.05;;;17.00;99.90;;;;;;4589496;19;20002;-27
2022/10/29 15:26:08;;;;;;;24.48;21.90;;;17.00;99.90;;;;;;4590834;19;20006;-27
2022/10/29 15:27:40;;;;;;;27.73;24.75;;;17.00;99.90;;;;;;4590965;19;20027;-27
2022/10/29 15:29:11;;;;;;;28.98;24.42;;;17.00;99.90;;;;;;4591652;19;20037;-27
2022/10/29 15:30:42;;;;;;;30.90;24.45;;;17.00;99.90;;;;;;4588845;19;20023;-27
2022/10/29 15:32:15;;;;;;;24.55;19.23;;;17.00;99.90;;;;;;4591141;19;20025;-27
2022/10/29 15:33:45;;;;;;;18.33;14.50;;;17.00;99.90;;;;;;4590537;19;20011;-27
2022/10/29 15:35:19;;;;;;;18.27;14.70;;;17.00;99.90;;;;;;4590324;19;20018;-27
2022/10/29 15:36:51;;;;;;;15.88;12.38;;;17.00;99.90;;;;;;4591056;19;20023;-28
2022/10/29 15:38:28;;;;;;;15.23;11.88;;;17.00;99.90;;;;;;4589945;19;20011;-28
2022/10/29 15:40:04;;;;;;;15.88;11.57;;;17.00;99.90;;;;;;4591111;19;20022;-27
2022/10/29 15:41:38;;;;;;;15.93;12.35;;;17.00;99.90;;;;;;4590275;19;20015;-27
2022/10/29 15:43:28;;;;;;;14.45;10.93;;;17.00;99.90;;;;;;4589184;19;20018;-27
2022/10/29 15:45:06;;;;;;;13.80;10.50;;;17.00;99.90;;;;;;4589639;19;20002;-27
2022/10/29 15:46:48;;;;;;;15.77;11.65;;;17.00;99.90;;;;;;4589770;19;20081;-27
2022/10/29 15:48:29;;;;;;;15.52;11.95;;;17.00;99.90;;;;;;4586689;19;20060;-27
2022/10/29 15:50:02;;;;;;;15.45;12.32;;;16.90;99.90;;;;;;4589486;19;20066;-27
2022/10/29 15:51:35;;;;;;;18.92;14.35;;;17.00;99.90;;;;;;4587040;19;20024;-27
2022/10/29 15:53:12;;;;;;;17.15;13.70;;;17.00;99.90;;;;;;4585620;19;20495;-27
2022/10/29 15:54:44;;;;;;;16.10;12.60;;;17.00;99.90;;;;;;4587034;19;20374;-28
2022/10/29 15:56:15;;;;;;;;;;;16.90;99.90;;;;;;4586700;19;20007;-27
2022/10/29 15:57:46;;;;;;;13.30;10.75;;;16.90;99.90;;;;;;4587528;19;19970;-27
2022/10/29 15:59:22;;;;;;;14.80;12.35;;;16.90;99.90;;;;;;4587261;19;20017;-28
2022/10/29 16:00:54;;;;;;;15.93;13.13;;;16.90;99.90;;;;;;4586912;19;20011;-27
2022/10/29 16:02:25;;;;;;;18.52;16.30;;;16.90;99.90;;;;;;4586371;19;20379;-27
2022/10/29 16:03:56;;;;;;;25.98;23.08;;;16.90;99.90;;;;;;4587478;19;20089;-27
2022/10/29 16:05:28;;;;;;;63.75;52.22;;;16.90;99.90;;;;;;4587197;19;20014;-27
2022/10/29 16:06:59;;;;;;;74.45;57.42;;;16.90;99.90;;;;;;4586962;19;20006;-27
2022/10/29 16:08:49;;;;;;;95.88;71.10;;;16.90;99.90;;;;;;4586874;19;20022;-27
2022/10/29 16:10:22;;;;;;;83.72;64.38;;;16.90;99.90;;;;;;4586313;19;20030;-27
2022/10/29 16:11:53;;;;;;;59.22;47.80;;;16.90;99.90;;;;;;4588154;19;20814;-27
2022/10/29 16:13:24;;;;;;;52.45;43.70;;;16.90;99.90;;;;;;4591619;19;20022;-27
2022/10/29 16:16:42;;;;;;;228.10;184.07;;;16.90;99.90;;;;;;4591306;19;20048;-27
2022/10/29 16:18:15;;;;;;;200.80;162.70;;;17.00;99.90;;;;;;4591356;19;20497;-27
2022/10/29 16:19:47;;;;;;;147.85;115.80;;;17.00;99.90;;;;;;4590601;19;20512;-28
2022/10/29 16:21:23;;;;;;;113.30;88.30;;;17.00;99.90;;;;;;4589206;19;20028;-27
2022/10/29 16:22:55;;;;;;;68.07;53.67;;;17.10;99.90;;;;;;4589483;19;20023;-28
2022/10/29 16:24:26;;;;;;;57.35;44.90;;;17.10;99.90;;;;;;4591061;19;20014;-27
2022/10/29 16:25:57;;;;;;;58.38;41.30;;;17.20;99.90;;;;;;4592078;19;20030;-27
2022/10/29 16:27:28;;;;;;;52.58;37.33;;;17.20;99.90;;;;;;4591648;19;20006;-27
2022/10/29 16:29:00;;;;;;;47.05;35.90;;;17.30;99.90;;;;;;4590341;19;20045;-27
2022/10/29 16:30:32;;;;;;;41.47;30.42;;;17.30;99.90;;;;;;4591164;19;20010;-27
2022/10/29 16:32:05;;;;;;;45.92;32.78;;;17.30;99.90;;;;;;4590380;19;20018;-28
2022/10/29 16:33:36;;;;;;;65.53;44.90;;;17.40;99.90;;;;;;4591917;19;20021;-27
2022/10/29 16:35:17;;;;;;;73.45;45.80;;;17.40;99.90;;;;;;4594082;19;20026;-27
2022/10/29 16:36:49;;;;;;;80.40;47.05;;;17.40;99.90;;;;;;4592974;19;20074;-27
2022/10/29 16:38:20;;;;;;;78.03;45.53;;;17.40;99.90;;;;;;4592769;19;20018;-28
2022/10/29 16:39:51;;;;;;;65.82;40.75;;;17.40;99.90;;;;;;4592860;19;20028;-28
2022/10/29 16:41:22;;;;;;;63.30;38.97;;;17.40;99.90;;;;;;4592986;19;20388;-28
2022/10/29 16:42:56;;;;;;;61.55;39.55;;;17.40;99.90;;;;;;4591110;19;20015;-28
2022/10/29 16:44:28;;;;;;;76.40;48.00;;;17.40;99.90;;;;;;4593182;19;20495;-27
2022/10/29 16:45:59;;;;;;;82.25;51.65;;;17.40;99.90;;;;;;4592885;19;20070;-28
2022/10/29 16:47:31;;;;;;;87.97;57.42;;;17.30;99.90;;;;;;4592772;19;20037;-27
2022/10/29 16:49:01;;;;;;;75.47;59.10;;;17.30;99.90;;;;;;4592359;19;20476;-28
2022/10/29 16:50:33;;;;;;;75.30;59.17;;;17.30;99.90;;;;;;4592426;19;20011;-27
2022/10/29 16:52:08;;;;;;;78.32;60.20;;;17.30;99.90;;;;;;4592955;19;20014;-27
2022/10/29 16:53:39;;;;;;;90.05;64.80;;;17.30;99.90;;;;;;4593086;19;20377;-27
2022/10/29 16:55:11;;;;;;;82.50;60.92;;;17.30;99.90;;;;;;4592591;19;20015;-27
2022/10/29 16:56:43;;;;;;;73.93;58.45;;;17.20;99.90;;;;;;4592290;19;20011;-27
2022/10/29 16:58:15;;;;;;;61.30;51.15;;;17.20;99.90;;;;;;4593619;19;20022;-27
2022/10/29 16:59:46;;;;;;;62.22;48.95;;;17.20;99.90;;;;;;4593601;19;20034;-28
2022/10/29 17:01:17;;;;;;;49.25;40.53;;;17.20;99.90;;;;;;4592841;19;20040;-28
2022/10/29 17:02:49;;;;;;;44.42;37.72;;;17.20;99.90;;;;;;4591532;19;20011;-27
2022/10/29 17:04:21;;;;;;;41.80;33.15;;;17.10;99.90;;;;;;4592215;19;20107;-28
2022/10/29 17:05:53;;;;;;;36.55;27.90;;;17.10;99.90;;;;;;4593387;19;20035;-27
2022/10/29 17:07:24;;;;;;;33.40;25.33;;;17.10;99.90;;;;;;4593192;19;20504;-27
2022/10/29 17:08:55;;;;;;;31.75;25.90;;;17.10;99.90;;;;;;4593085;19;20011;-27
2022/10/29 17:10:31;;;;;;;34.50;26.83;;;17.10;99.90;;;;;;4593208;19;20345;-28
2022/10/29 17:12:02;;;;;;;36.53;26.27;;;17.10;99.90;;;;;;4592121;19;20025;-27
2022/10/29 17:13:35;;;;;;;32.13;26.35;;;17.10;99.90;;;;;;4593355;19;20006;-28
2022/10/29 17:15:06;;;;;;;33.63;25.20;;;17.10;99.90;;;;;;4592096;19;20014;-28
2022/10/29 17:37:45;;;;;;;40.42;29.02;;;17.00;99.90;;;;;;4592006;19;20034;-28
2022/10/29 17:39:16;;;;;;;38.00;28.45;;;17.00;99.90;;;;;;4592269;19;20018;-27
2022/10/29 17:40:47;;;;;;;36.45;25.50;;;17.00;99.90;;;;;;4592310;19;20491;-27
2022/10/29 17:42:18;;;;;;;34.58;25.70;;;16.90;99.90;;;;;;4591639;19;20018;-27
2022/10/29 17:43:49;;;;;;;36.63;25.90;;;16.90;99.90;;;;;;4592471;19;20102;-28
2022/10/29 17:45:21;;;;;;;39.33;30.13;;;16.90;99.90;;;;;;4590844;19;20022;-27
2022/10/29 17:46:54;;;;;;;41.38;30.17;;;16.90;99.90;;;;;;4591180;19;20014;-27
2022/10/29 17:48:27;;;;;;;36.72;27.05;;;16.90;99.90;;;;;;4590436;19;20006;-27
2022/10/29 17:49:59;;;;;;;37.28;26.38;;;16.90;99.90;;;;;;4592486;19;20014;-28
2022/10/29 17:51:30;;;;;;;31.95;25.80;;;16.90;99.90;;;;;;4590974;19;20011;-28
2022/10/29 17:53:05;;;;;;;42.92;30.25;;;17.00;99.90;;;;;;4590658;19;20042;-27
2022/10/29 18:05:27;;;;;;;38.67;25.90;;;16.90;99.90;;;;;;4590814;19;20101;-27
2022/10/29 18:06:58;;;;;;;38.42;26.55;;;16.90;99.90;;;;;;4591498;19;20609;-28
2022/10/29 18:08:29;;;;;;;40.35;28.38;;;16.90;99.90;;;;;;4591903;19;20468;-27
2022/10/29 18:10:01;;;;;;;40.08;27.88;;;16.90;99.90;;;;;;4591246;19;20011;-27
2022/10/29 18:11:33;;;;;;;39.10;28.30;;;16.80;99.90;;;;;;4591524;19;20042;-27
2022/10/29 18:13:04;;;;;;;43.10;27.95;;;16.80;99.90;;;;;;4591452;19;20045;-27
2022/10/29 18:14:35;;;;;;;35.35;25.30;;;16.80;99.90;;;;;;4589758;19;20038;-27
2022/10/29 18:16:08;;;;;;;32.28;23.95;;;16.90;99.90;;;;;;4584756;19;20464;-27
2022/10/29 18:17:39;;;;;;;31.27;21.88;;;16.80;99.90;;;;;;4590165;19;20493;-27
2022/10/29 18:19:13;;;;;;;34.28;24.77;;;16.90;99.90;;;;;;4589469;19;20091;-27
2022/10/29 18:20:44;;;;;;;40.70;29.00;;;16.90;99.90;;;;;;4590346;19;20484;-27
2022/10/29 18:22:16;;;;;;;41.03;29.23;;;16.80;99.90;;;;;;4591110;19;20018;-27
2022/10/29 18:23:48;;;;;;;33.58;24.85;;;16.80;99.90;;;;;;4588985;19;20027;-27
2022/10/29 18:25:20;;;;;;;30.85;24.52;;;16.80;99.90;;;;;;4591006;19;20535;-27
2022/10/29 18:26:52;;;;;;;32.97;24.05;;;16.80;99.90;;;;;;4591151;19;20499;-27
2022/10/29 18:28:23;;;;;;;27.48;21.98;;;16.80;99.90;;;;;;4590530;19;20025;-27
2022/10/29 18:29:55;;;;;;;28.83;22.75;;;16.80;99.90;;;;;;4590021;19;20022;-27
2022/10/29 18:31:29;;;;;;;29.60;21.38;;;16.80;99.90;;;;;;4591595;19;20074;-27
2022/10/29 18:33:01;;;;;;;27.92;22.90;;;16.80;99.90;;;;;;4590733;19;20018;-26
2022/10/29 18:34:33;;;;;;;29.75;22.75;;;16.80;99.90;;;;;;4590460;19;20021;-26
2022/10/29 18:36:04;;;;;;;32.83;27.02;;;16.80;99.90;;;;;;4590131;19;20018;-27
2022/10/29 18:41:08;;;;;;;33.53;26.33;;;16.80;99.90;;;;;;4588937;19;20078;-27
2022/10/29 18:42:39;;;;;;;33.15;25.08;;;16.80;99.90;;;;;;4589939;19;20018;-27
2022/10/29 18:44:10;;;;;;;35.67;26.30;;;16.80;99.90;;;;;;4591614;19;20010;-27
2022/10/29 18:45:43;;;;;;;34.22;24.33;;;16.80;99.90;;;;;;4591160;19;20010;-27
2022/10/29 18:47:14;;;;;;;36.47;27.23;;;16.80;99.90;;;;;;4592569;19;20015;-28
2022/10/29 18:48:46;;;;;;;47.30;33.75;;;16.80;99.90;;;;;;4591547;19;20023;-27
2022/10/29 18:50:17;;;;;;;45.35;33.33;;;16.80;99.90;;;;;;4593288;19;20011;-27
2022/10/29 18:51:49;;;;;;;43.92;31.58;;;16.80;99.90;;;;;;4588829;19;20026;-27
2022/10/29 18:53:20;;;;;;;35.92;26.52;;;16.80;99.90;;;;;;4588415;19;20010;-28
2022/10/29 18:54:51;;;;;;;38.15;27.27;;;16.80;99.90;;;;;;4588532;19;20371;-27
2022/10/29 18:56:27;;;;;;;36.50;26.42;;;16.80;99.90;;;;;;4588369;19;20018;-27
2022/10/29 18:57:59;;;;;;;45.80;32.80;;;16.80;99.90;;;;;;4588349;19;20010;-28
2022/10/29 18:59:31;;;;;;;44.60;31.90;;;16.70;99.90;;;;;;4588291;19;20006;-27
2022/10/29 19:01:07;;;;;;;45.80;32.90;;;16.70;99.90;;;;;;4587884;19;20028;-28
2022/10/29 19:02:39;;;;;;;52.92;39.33;;;16.70;99.90;;;;;;4588589;19;20318;-28
2022/10/29 19:04:13;;;;;;;57.67;38.80;;;16.70;99.90;;;;;;4589362;19;20413;-27
2022/10/29 19:05:44;;;;;;;57.90;37.33;;;16.80;99.90;;;;;;4590332;19;20010;-27
2022/10/29 19:07:16;;;;;;;55.67;38.08;;;16.80;99.90;;;;;;4590222;19;20015;-27
2022/10/29 19:08:48;;;;;;;60.38;41.50;;;16.80;99.90;;;;;;4591051;19;20018;-28
2022/10/29 19:10:20;;;;;;;61.47;43.35;;;16.80;99.90;;;;;;4588270;19;20480;-27
2022/10/29 19:11:51;;;;;;;67.85;46.63;;;16.70;99.90;;;;;;4587915;19;20034;-28
2022/10/29 19:13:24;;;;;;;75.35;50.20;;;16.70;99.90;;;;;;4588169;19;20337;-27
2022/10/29 19:14:56;;;;;;;70.53;49.60;;;16.80;99.90;;;;;;4587349;19;20018;-28
2022/10/29 19:16:29;;;;;;;68.70;46.78;;;16.80;99.90;;;;;;4588144;19;20488;-28
2022/10/29 19:18:02;;;;;;;60.00;42.42;;;16.70;99.90;;;;;;4587910;19;20007;-28
2022/10/29 19:19:34;;;;;;;55.60;37.25;;;16.70;99.90;;;;;;4587875;19;20014;-27
2022/10/29 19:21:10;;;;;;;;;;;16.70;99.90;;;;;;4591191;19;20015;-27
2022/10/29 19:22:41;;;;;;;43.50;32.55;;;16.70;99.90;;;;;;4587436;19;19946;-27
2022/10/29 19:24:13;;;;;;;43.15;31.40;;;16.70;99.90;;;;;;4589916;19;20015;-28
2022/10/29 19:25:45;;;;;;;43.03;30.63;;;16.70;99.90;;;;;;4588834;19;20476;-27
2022/10/29 19:27:17;;;;;;;37.35;28.15;;;16.80;99.90;;;;;;4588527;19;20010;-28
2022/10/29 19:28:48;;;;;;;36.25;28.40;;;16.70;99.90;;;;;;4589332;19;20345;-27
2022/10/29 19:30:19;;;;;;;37.30;28.40;;;16.80;99.90;;;;;;4588691;19;20452;-27
2022/10/29 19:31:51;;;;;;;37.50;28.38;;;16.70;99.90;;;;;;4589903;19;20472;-27
2022/10/29 19:33:22;;;;;;;48.83;32.58;;;16.70;99.90;;;;;;4589649;19;20017;-27
2022/10/29 19:34:53;;;;;;;44.08;29.13;;;16.70;99.90;;;;;;4589698;19;20011;-28
2022/10/29 19:36:25;;;;;;;43.90;30.60;;;16.70;99.90;;;;;;4589524;19;20002;-28
2022/10/29 19:37:56;;;;;;;;;;;16.70;99.90;;;;;;4590832;19;20432;-27
2022/10/29 19:39:27;;;;;;;38.55;25.50;;;16.70;99.90;;;;;;4589788;19;19927;-27
2022/10/29 20:03:53;;;;;;;31.30;22.65;;;16.80;99.90;;;;;;4593061;19;19995;-28
2022/10/29 20:05:24;;;;;;;31.30;23.88;;;16.80;99.90;;;;;;4593923;19;20036;-27
2022/10/29 20:06:55;;;;;;;32.15;24.83;;;16.80;99.90;;;;;;4591371;19;20011;-28
2022/10/29 20:08:26;;;;;;;33.95;25.00;;;16.80;99.90;;;;;;4590563;19;20022;-27
2022/10/29 20:09:57;;;;;;;35.53;25.92;;;16.80;99.90;;;;;;4593665;19;20010;-28
2022/10/29 20:11:28;;;;;;;34.58;25.35;;;16.80;99.90;;;;;;4594424;19;20018;-27
2022/10/29 20:13:00;;;;;;;33.40;24.38;;;16.80;99.90;;;;;;4593258;19;20010;-28
2022/10/29 20:14:34;;;;;;;32.13;22.95;;;16.80;99.90;;;;;;4592528;19;20050;-27
2022/10/29 20:16:09;;;;;;;30.83;23.13;;;16.80;99.90;;;;;;4593326;19;20006;-27
2022/10/29 20:17:41;;;;;;;29.33;22.88;;;16.80;99.90;;;;;;4590993;19;20018;-27
2022/10/29 20:19:12;;;;;;;34.58;25.42;;;16.80;99.90;;;;;;4591881;19;20025;-27
2022/10/29 20:20:43;;;;;;;31.58;24.25;;;16.80;99.90;;;;;;4592228;19;20110;-27
2022/10/29 20:22:14;;;;;;;32.63;24.33;;;16.80;99.90;;;;;;4591507;19;20006;-27
2022/10/29 20:23:46;;;;;;;30.23;23.20;;;16.80;99.90;;;;;;4590165;19;20017;-27
2022/10/29 20:25:17;;;;;;;32.30;23.20;;;16.80;99.90;;;;;;4590086;19;20395;-28
2022/10/29 20:26:48;;;;;;;34.47;23.88;;;16.80;99.90;;;;;;4591219;19;20003;-27
2022/10/29 20:28:19;;;;;;;44.10;28.13;;;16.80;99.90;;;;;;4589793;19;20087;-28
2022/10/29 20:29:50;;;;;;;44.50;29.13;;;16.80;99.90;;;;;;4591998;19;20025;-27
2022/10/29 20:31:27;;;;;;;39.28;26.88;;;16.80;99.90;;;;;;4591806;19;20002;-27
2022/10/29 20:32:58;;;;;;;34.53;24.52;;;16.80;99.90;;;;;;4591496;19;20018;-27
2022/10/29 20:34:29;;;;;;;35.80;25.05;;;16.80;99.90;;;;;;4591914;19;20054;-27
2022/10/29 20:36:01;;;;;;;31.42;24.52;;;16.80;99.90;;;;;;4591148;19;20018;-27
2022/10/29 20:37:32;;;;;;;29.90;23.23;;;16.80;99.90;;;;;;4590654;19;20011;-27
2022/10/29 20:39:03;;;;;;;25.65;22.13;;;16.80;99.90;;;;;;4590425;19;20010;-28
2022/10/29 20:40:35;;;;;;;;;;;16.80;99.90;;;;;;4593617;19;20021;-27
2022/10/29 20:42:07;;;;;;;28.25;23.20;;;16.80;99.90;;;;;;4591396;19;19934;-28
2022/10/29 20:43:40;;;;;;;31.42;25.05;;;16.80;99.90;;;;;;4591140;19;20011;-28
2022/10/29 20:45:13;;;;;;;30.52;26.17;;;16.80;99.90;;;;;;4590654;19;20015;-27
2022/10/29 20:46:45;;;;;;;28.77;24.92;;;16.80;99.90;;;;;;4590741;19;20383;-27
2022/10/29 20:48:17;;;;;;;29.38;23.08;;;16.80;99.90;;;;;;4589536;19;20015;-27
2022/10/29 20:49:48;;;;;;;30.67;24.10;;;16.80;99.90;;;;;;4593072;19;20015;-27
2022/10/29 20:51:21;;;;;;;35.33;24.35;;;16.80;99.90;;;;;;4593470;19;20018;-28
2022/10/29 20:52:52;;;;;;;32.85;24.58;;;16.90;99.90;;;;;;4592595;19;20006;-27
2022/10/29 20:54:23;;;;;;;31.75;25.02;;;16.90;99.90;;;;;;4592199;19;20015;-27
2022/10/29 20:55:54;;;;;;;34.70;25.40;;;17.00;99.90;;;;;;4591666;19;20448;-28
2022/10/29 20:57:26;;;;;;;30.95;23.20;;;17.00;99.90;;;;;;4591587;19;20074;-28
2022/10/29 20:58:57;;;;;;;28.88;24.83;;;17.00;99.90;;;;;;4591184;19;20349;-28
2022/10/29 21:00:28;;;;;;;33.15;26.10;;;17.00;99.90;;;;;;4591126;19;20018;-27
2022/10/29 21:01:59;;;;;;;32.05;24.50;;;17.00;99.90;;;;;;4593884;19;20070;-28
2022/10/29 21:05:16;;;;;;;29.73;22.00;;;17.00;99.90;;;;;;4592608;19;20036;-27
2022/10/29 21:06:48;;;;;;;31.95;22.90;;;17.00;99.90;;;;;;4592483;19;20379;-27
2022/10/29 21:08:19;;;;;;;33.17;24.33;;;17.00;99.90;;;;;;4592203;19;20023;-28
2022/10/29 21:09:50;;;;;;;30.23;23.40;;;17.00;99.90;;;;;;4591855;19;20721;-27
2022/10/29 21:11:22;;;;;;;27.92;21.08;;;17.00;99.90;;;;;;4589990;19;20033;-27
2022/10/29 21:12:53;;;;;;;28.35;21.17;;;17.00;99.90;;;;;;4590584;19;20480;-28
2022/10/29 21:14:26;;;;;;;30.20;21.80;;;17.00;99.90;;;;;;4590492;19;20018;-28
2022/10/29 21:16:27;;;;;;;29.48;23.25;;;17.00;99.90;;;;;;4591322;19;20006;-27